sensor_id;sensor_type;location;lat;lon;timestamp;P1;durP1;ratioP1;P2;durP2;ratioP2
49241;SDS011;35079;52.704;13.814;2022-08-19T00:01:26;15.02;;;12.52;;
49241;SDS011;35079;52.704;13.814;2022-08-19T00:03:54;14.10;;;12.60;;
49241;SDS011;35079;52.704;13.814;2022-08-19T00:06:20;15.05;;;12.50;;
49241;SDS011;35079;52.704;13.814;2022-08-19T00:08:46;14.38;;;12.13;;
49241;SDS011;35079;52.704;13.814;2022-08-19T00:11:12;14.68;;;13.07;;
49241;SDS011;35079;52.704;13.814;2022-08-19T00:13:37;14.10;;;12.68;;
49241;SDS011;35079;52.704;13.814;2022-08-19T00:16:03;15.23;;;12.80;;
49241;SDS011;35079;52.704;13.814;2022-08-19T00:18:32;13.93;;;12.40;;
49241;SDS011;35079;52.704;13.814;2022-08-19T00:20:58;14.75;;;12.90;;
49241;SDS011;35079;52.704;13.814;2022-08-19T00:23:24;15.43;;;13.10;;
49241;SDS011;35079;52.704;13.814;2022-08-19T00:25:50;14.18;;;12.70;;
49241;SDS011;35079;52.704;13.814;2022-08-19T00:28:17;14.15;;;12.50;;
49241;SDS011;35079;52.704;13.814;2022-08-19T00:30:43;13.57;;;12.20;;
49241;SDS011;35079;52.704;13.814;2022-08-19T00:33:11;12.93;;;11.55;;
49241;SDS011;35079;52.704;13.814;2022-08-19T00:35:38;13.13;;;11.90;;
49241;SDS011;35079;52.704;13.814;2022-08-19T00:38:04;15.02;;;13.50;;
49241;SDS011;35079;52.704;13.814;2022-08-19T00:40:33;14.57;;;12.88;;
49241;SDS011;35079;52.704;13.814;2022-08-19T00:42:59;16.55;;;14.13;;
49241;SDS011;35079;52.704;13.814;2022-08-19T00:45:26;15.38;;;13.23;;
49241;SDS011;35079;52.704;13.814;2022-08-19T00:47:55;15.52;;;14.02;;
49241;SDS011;35079;52.704;13.814;2022-08-19T00:50:21;16.58;;;14.38;;
49241;SDS011;35079;52.704;13.814;2022-08-19T00:52:49;14.90;;;13.40;;
49241;SDS011;35079;52.704;13.814;2022-08-19T00:55:17;16.88;;;14.68;;
49241;SDS011;35079;52.704;13.814;2022-08-19T00:57:46;18.30;;;16.13;;
49241;SDS011;35079;52.704;13.814;2022-08-19T01:00:17;17.90;;;15.73;;
49241;SDS011;35079;52.704;13.814;2022-08-19T01:02:44;16.65;;;15.02;;
49241;SDS011;35079;52.704;13.814;2022-08-19T01:05:11;17.15;;;14.63;;
49241;SDS011;35079;52.704;13.814;2022-08-19T01:07:40;19.48;;;15.85;;
49241;SDS011;35079;52.704;13.814;2022-08-19T01:10:10;17.20;;;15.40;;
49241;SDS011;35079;52.704;13.814;2022-08-19T01:12:39;17.23;;;14.48;;
49241;SDS011;35079;52.704;13.814;2022-08-19T01:15:05;17.25;;;14.95;;
49241;SDS011;35079;52.704;13.814;2022-08-19T01:17:33;17.80;;;14.90;;
49241;SDS011;35079;52.704;13.814;2022-08-19T01:20:01;17.48;;;15.60;;
49241;SDS011;35079;52.704;13.814;2022-08-19T01:22:39;17.13;;;14.43;;
49241;SDS011;35079;52.704;13.814;2022-08-19T01:25:17;17.80;;;15.85;;
49241;SDS011;35079;52.704;13.814;2022-08-19T01:27:47;17.40;;;15.60;;
49241;SDS011;35079;52.704;13.814;2022-08-19T01:30:20;17.35;;;14.40;;
49241;SDS011;35079;52.704;13.814;2022-08-19T01:32:48;17.45;;;15.68;;
49241;SDS011;35079;52.704;13.814;2022-08-19T01:35:15;17.90;;;15.75;;
49241;SDS011;35079;52.704;13.814;2022-08-19T01:37:50;18.05;;;16.23;;
49241;SDS011;35079;52.704;13.814;2022-08-19T01:40:18;17.58;;;15.88;;
49241;SDS011;35079;52.704;13.814;2022-08-19T01:42:48;18.88;;;15.38;;
49241;SDS011;35079;52.704;13.814;2022-08-19T01:45:15;17.77;;;15.45;;
49241;SDS011;35079;52.704;13.814;2022-08-19T01:47:41;17.65;;;15.73;;
49241;SDS011;35079;52.704;13.814;2022-08-19T01:50:08;20.85;;;16.40;;
49241;SDS011;35079;52.704;13.814;2022-08-19T01:52:35;18.13;;;16.23;;
49241;SDS011;35079;52.704;13.814;2022-08-19T01:55:03;21.27;;;17.10;;
49241;SDS011;35079;52.704;13.814;2022-08-19T01:57:30;18.27;;;16.38;;
49241;SDS011;35079;52.704;13.814;2022-08-19T01:59:56;16.98;;;15.20;;
49241;SDS011;35079;52.704;13.814;2022-08-19T02:02:22;18.40;;;15.70;;
49241;SDS011;35079;52.704;13.814;2022-08-19T02:04:47;18.08;;;15.85;;
49241;SDS011;35079;52.704;13.814;2022-08-19T02:07:13;19.58;;;15.90;;
49241;SDS011;35079;52.704;13.814;2022-08-19T02:09:39;20.17;;;16.20;;
49241;SDS011;35079;52.704;13.814;2022-08-19T02:12:05;18.17;;;16.02;;
49241;SDS011;35079;52.704;13.814;2022-08-19T02:14:33;18.85;;;15.65;;
49241;SDS011;35079;52.704;13.814;2022-08-19T02:17:00;19.75;;;16.38;;
49241;SDS011;35079;52.704;13.814;2022-08-19T02:19:25;17.48;;;15.43;;
49241;SDS011;35079;52.704;13.814;2022-08-19T02:21:52;17.45;;;15.65;;
49241;SDS011;35079;52.704;13.814;2022-08-19T02:24:18;19.48;;;15.98;;
49241;SDS011;35079;52.704;13.814;2022-08-19T02:26:43;16.92;;;14.68;;
49241;SDS011;35079;52.704;13.814;2022-08-19T02:29:09;16.73;;;14.98;;
49241;SDS011;35079;52.704;13.814;2022-08-19T02:31:35;18.65;;;15.57;;
49241;SDS011;35079;52.704;13.814;2022-08-19T02:34:02;17.50;;;15.48;;
49241;SDS011;35079;52.704;13.814;2022-08-19T02:36:27;19.08;;;15.60;;
49241;SDS011;35079;52.704;13.814;2022-08-19T02:38:53;16.63;;;14.82;;
49241;SDS011;35079;52.704;13.814;2022-08-19T02:41:21;19.73;;;16.13;;
49241;SDS011;35079;52.704;13.814;2022-08-19T02:43:49;18.60;;;15.00;;
49241;SDS011;35079;52.704;13.814;2022-08-19T02:46:16;19.20;;;16.20;;
49241;SDS011;35079;52.704;13.814;2022-08-19T02:48:46;16.35;;;14.82;;
49241;SDS011;35079;52.704;13.814;2022-08-19T02:51:16;17.92;;;14.45;;
49241;SDS011;35079;52.704;13.814;2022-08-19T02:53:44;18.42;;;14.77;;
49241;SDS011;35079;52.704;13.814;2022-08-19T02:56:09;14.98;;;13.50;;
49241;SDS011;35079;52.704;13.814;2022-08-19T02:58:35;16.92;;;14.02;;
49241;SDS011;35079;52.704;13.814;2022-08-19T03:01:00;15.55;;;13.65;;
49241;SDS011;35079;52.704;13.814;2022-08-19T03:03:26;14.32;;;12.93;;
49241;SDS011;35079;52.704;13.814;2022-08-19T03:06:01;17.73;;;14.02;;
49241;SDS011;35079;52.704;13.814;2022-08-19T03:08:35;15.07;;;13.57;;
49241;SDS011;35079;52.704;13.814;2022-08-19T03:11:01;14.82;;;13.32;;
49241;SDS011;35079;52.704;13.814;2022-08-19T03:13:27;16.45;;;14.18;;
49241;SDS011;35079;52.704;13.814;2022-08-19T03:15:53;14.25;;;12.85;;
49241;SDS011;35079;52.704;13.814;2022-08-19T03:18:18;14.88;;;13.40;;
49241;SDS011;35079;52.704;13.814;2022-08-19T03:20:45;15.10;;;13.52;;
49241;SDS011;35079;52.704;13.814;2022-08-19T03:23:17;16.90;;;13.25;;
49241;SDS011;35079;52.704;13.814;2022-08-19T03:25:44;15.20;;;13.68;;
49241;SDS011;35079;52.704;13.814;2022-08-19T03:28:11;15.63;;;14.07;;
49241;SDS011;35079;52.704;13.814;2022-08-19T03:30:39;14.98;;;13.45;;
49241;SDS011;35079;52.704;13.814;2022-08-19T03:33:07;15.25;;;13.23;;
49241;SDS011;35079;52.704;13.814;2022-08-19T03:35:33;14.63;;;12.25;;
49241;SDS011;35079;52.704;13.814;2022-08-19T03:38:01;14.10;;;11.80;;
49241;SDS011;35079;52.704;13.814;2022-08-19T03:40:28;15.38;;;12.93;;
49241;SDS011;35079;52.704;13.814;2022-08-19T03:42:55;14.48;;;12.98;;
49241;SDS011;35079;52.704;13.814;2022-08-19T03:45:21;15.05;;;13.55;;
49241;SDS011;35079;52.704;13.814;2022-08-19T03:47:48;14.23;;;12.73;;
49241;SDS011;35079;52.704;13.814;2022-08-19T03:50:13;15.27;;;13.68;;
49241;SDS011;35079;52.704;13.814;2022-08-19T03:52:39;14.05;;;11.90;;
49241;SDS011;35079;52.704;13.814;2022-08-19T03:55:05;16.00;;;13.93;;
49241;SDS011;35079;52.704;13.814;2022-08-19T03:57:32;15.30;;;13.73;;
49241;SDS011;35079;52.704;13.814;2022-08-19T03:59:58;16.77;;;13.52;;
49241;SDS011;35079;52.704;13.814;2022-08-19T04:02:24;14.68;;;13.27;;
49241;SDS011;35079;52.704;13.814;2022-08-19T04:04:50;15.52;;;13.25;;
49241;SDS011;35079;52.704;13.814;2022-08-19T04:07:19;14.98;;;13.38;;
49241;SDS011;35079;52.704;13.814;2022-08-19T04:09:46;16.23;;;14.25;;
49241;SDS011;35079;52.704;13.814;2022-08-19T04:12:12;15.93;;;14.25;;
49241;SDS011;35079;52.704;13.814;2022-08-19T04:14:38;16.63;;;14.70;;
49241;SDS011;35079;52.704;13.814;2022-08-19T04:17:04;14.32;;;12.85;;
49241;SDS011;35079;52.704;13.814;2022-08-19T04:19:30;15.65;;;14.05;;
49241;SDS011;35079;52.704;13.814;2022-08-19T04:21:57;17.45;;;13.80;;
49241;SDS011;35079;52.704;13.814;2022-08-19T04:24:23;15.85;;;14.18;;
49241;SDS011;35079;52.704;13.814;2022-08-19T04:26:49;14.82;;;13.23;;
49241;SDS011;35079;52.704;13.814;2022-08-19T04:29:21;16.02;;;14.27;;
49241;SDS011;35079;52.704;13.814;2022-08-19T04:31:50;15.77;;;14.13;;
49241;SDS011;35079;52.704;13.814;2022-08-19T04:34:17;16.48;;;14.82;;
49241;SDS011;35079;52.704;13.814;2022-08-19T04:36:46;15.52;;;13.93;;
49241;SDS011;35079;52.704;13.814;2022-08-19T04:39:14;16.98;;;15.23;;
49241;SDS011;35079;52.704;13.814;2022-08-19T04:41:41;19.52;;;15.05;;
49241;SDS011;35079;52.704;13.814;2022-08-19T04:44:40;17.63;;;15.57;;
49241;SDS011;35079;52.704;13.814;2022-08-19T04:47:06;16.85;;;15.15;;
49241;SDS011;35079;52.704;13.814;2022-08-19T04:49:31;17.67;;;15.40;;
49241;SDS011;35079;52.704;13.814;2022-08-19T04:51:57;17.17;;;15.15;;
49241;SDS011;35079;52.704;13.814;2022-08-19T04:54:24;19.70;;;16.05;;
49241;SDS011;35079;52.704;13.814;2022-08-19T04:56:50;18.45;;;16.48;;
49241;SDS011;35079;52.704;13.814;2022-08-19T04:59:19;17.58;;;15.68;;
49241;SDS011;35079;52.704;13.814;2022-08-19T05:01:46;18.92;;;17.00;;
49241;SDS011;35079;52.704;13.814;2022-08-19T05:04:15;17.70;;;15.90;;
49241;SDS011;35079;52.704;13.814;2022-08-19T05:06:44;18.98;;;15.70;;
49241;SDS011;35079;52.704;13.814;2022-08-19T05:09:09;19.83;;;17.75;;
49241;SDS011;35079;52.704;13.814;2022-08-19T05:11:36;19.25;;;17.25;;
49241;SDS011;35079;52.704;13.814;2022-08-19T05:14:08;18.20;;;16.40;;
49241;SDS011;35079;52.704;13.814;2022-08-19T05:16:37;18.45;;;16.55;;
49241;SDS011;35079;52.704;13.814;2022-08-19T05:19:03;20.63;;;17.08;;
49241;SDS011;35079;52.704;13.814;2022-08-19T05:21:47;20.03;;;17.93;;
49241;SDS011;35079;52.704;13.814;2022-08-19T05:24:31;20.40;;;18.20;;
49241;SDS011;35079;52.704;13.814;2022-08-19T05:26:59;19.83;;;17.63;;
49241;SDS011;35079;52.704;13.814;2022-08-19T05:29:27;21.00;;;18.90;;
49241;SDS011;35079;52.704;13.814;2022-08-19T05:31:54;21.77;;;19.42;;
49241;SDS011;35079;52.704;13.814;2022-08-19T05:34:21;22.35;;;19.35;;
49241;SDS011;35079;52.704;13.814;2022-08-19T05:36:49;20.55;;;18.35;;
49241;SDS011;35079;52.704;13.814;2022-08-19T05:39:17;23.77;;;19.40;;
49241;SDS011;35079;52.704;13.814;2022-08-19T05:41:45;24.48;;;19.85;;
49241;SDS011;35079;52.704;13.814;2022-08-19T05:44:12;21.50;;;19.27;;
49241;SDS011;35079;52.704;13.814;2022-08-19T05:46:39;22.88;;;20.52;;
49241;SDS011;35079;52.704;13.814;2022-08-19T05:49:07;24.88;;;21.92;;
49241;SDS011;35079;52.704;13.814;2022-08-19T05:51:34;24.35;;;20.27;;
49241;SDS011;35079;52.704;13.814;2022-08-19T05:54:02;23.90;;;21.33;;
49241;SDS011;35079;52.704;13.814;2022-08-19T05:56:29;23.50;;;21.00;;
49241;SDS011;35079;52.704;13.814;2022-08-19T05:58:56;23.25;;;20.75;;
49241;SDS011;35079;52.704;13.814;2022-08-19T06:01:23;23.38;;;20.98;;
49241;SDS011;35079;52.704;13.814;2022-08-19T06:03:50;24.27;;;21.77;;
49241;SDS011;35079;52.704;13.814;2022-08-19T06:06:17;23.20;;;20.65;;
49241;SDS011;35079;52.704;13.814;2022-08-19T06:08:43;22.30;;;20.10;;
49241;SDS011;35079;52.704;13.814;2022-08-19T06:14:15;23.90;;;20.90;;
49241;SDS011;35079;52.704;13.814;2022-08-19T06:16:44;22.55;;;19.98;;
49241;SDS011;35079;52.704;13.814;2022-08-19T06:19:12;22.42;;;20.10;;
49241;SDS011;35079;52.704;13.814;2022-08-19T06:21:41;23.02;;;20.55;;
49241;SDS011;35079;52.704;13.814;2022-08-19T06:24:10;23.35;;;20.88;;
49241;SDS011;35079;52.704;13.814;2022-08-19T06:26:38;24.40;;;21.05;;
49241;SDS011;35079;52.704;13.814;2022-08-19T06:29:06;21.85;;;19.65;;
49241;SDS011;35079;52.704;13.814;2022-08-19T06:31:34;23.13;;;20.70;;
49241;SDS011;35079;52.704;13.814;2022-08-19T06:34:02;24.35;;;20.55;;
49241;SDS011;35079;52.704;13.814;2022-08-19T06:36:33;24.65;;;22.08;;
49241;SDS011;35079;52.704;13.814;2022-08-19T06:39:01;24.77;;;22.35;;
49241;SDS011;35079;52.704;13.814;2022-08-19T06:41:29;24.00;;;21.40;;
49241;SDS011;35079;52.704;13.814;2022-08-19T06:43:57;23.98;;;21.52;;
49241;SDS011;35079;52.704;13.814;2022-08-19T06:46:23;25.60;;;22.25;;
49241;SDS011;35079;52.704;13.814;2022-08-19T06:48:51;25.67;;;23.10;;
49241;SDS011;35079;52.704;13.814;2022-08-19T06:51:18;22.85;;;20.52;;
49241;SDS011;35079;52.704;13.814;2022-08-19T06:53:48;23.88;;;21.15;;
49241;SDS011;35079;52.704;13.814;2022-08-19T06:56:17;24.25;;;21.70;;
49241;SDS011;35079;52.704;13.814;2022-08-19T06:58:45;23.92;;;21.40;;
49241;SDS011;35079;52.704;13.814;2022-08-19T07:01:11;25.80;;;23.23;;
49241;SDS011;35079;52.704;13.814;2022-08-19T07:03:38;24.63;;;21.65;;
49241;SDS011;35079;52.704;13.814;2022-08-19T07:06:08;25.67;;;21.67;;
49241;SDS011;35079;52.704;13.814;2022-08-19T07:08:36;24.38;;;21.88;;
49241;SDS011;35079;52.704;13.814;2022-08-19T07:11:06;25.23;;;22.52;;
49241;SDS011;35079;52.704;13.814;2022-08-19T07:13:33;26.45;;;22.00;;
49241;SDS011;35079;52.704;13.814;2022-08-19T07:16:07;24.15;;;21.40;;
49241;SDS011;35079;52.704;13.814;2022-08-19T07:18:38;24.45;;;21.85;;
49241;SDS011;35079;52.704;13.814;2022-08-19T07:23:39;22.27;;;19.85;;
49241;SDS011;35079;52.704;13.814;2022-08-19T07:26:10;23.63;;;21.13;;
49241;SDS011;35079;52.704;13.814;2022-08-19T07:28:53;25.35;;;22.50;;
49241;SDS011;35079;52.704;13.814;2022-08-19T07:31:26;26.75;;;23.52;;
49241;SDS011;35079;52.704;13.814;2022-08-19T07:33:54;24.55;;;22.05;;
49241;SDS011;35079;52.704;13.814;2022-08-19T07:36:22;26.58;;;22.30;;
49241;SDS011;35079;52.704;13.814;2022-08-19T07:38:56;27.50;;;23.52;;
49241;SDS011;35079;52.704;13.814;2022-08-19T07:41:23;24.67;;;22.10;;
49241;SDS011;35079;52.704;13.814;2022-08-19T07:43:50;24.65;;;21.92;;
49241;SDS011;35079;52.704;13.814;2022-08-19T07:46:16;24.05;;;21.45;;
49241;SDS011;35079;52.704;13.814;2022-08-19T07:48:45;23.70;;;21.23;;
49241;SDS011;35079;52.704;13.814;2022-08-19T07:51:12;22.88;;;20.58;;
49241;SDS011;35079;52.704;13.814;2022-08-19T07:53:39;22.73;;;20.33;;
49241;SDS011;35079;52.704;13.814;2022-08-19T07:56:05;23.48;;;20.98;;
49241;SDS011;35079;52.704;13.814;2022-08-19T07:58:32;22.58;;;19.98;;
49241;SDS011;35079;52.704;13.814;2022-08-19T08:01:02;22.70;;;20.45;;
49241;SDS011;35079;52.704;13.814;2022-08-19T08:03:29;22.60;;;20.30;;
49241;SDS011;35079;52.704;13.814;2022-08-19T08:06:13;22.30;;;19.88;;
49241;SDS011;35079;52.704;13.814;2022-08-19T08:08:58;22.42;;;20.10;;
49241;SDS011;35079;52.704;13.814;2022-08-19T08:11:40;22.73;;;19.92;;
49241;SDS011;35079;52.704;13.814;2022-08-19T08:14:09;21.30;;;19.10;;
49241;SDS011;35079;52.704;13.814;2022-08-19T08:16:36;20.75;;;18.67;;
49241;SDS011;35079;52.704;13.814;2022-08-19T08:19:05;21.63;;;19.42;;
49241;SDS011;35079;52.704;13.814;2022-08-19T08:21:32;20.27;;;18.17;;
49241;SDS011;35079;52.704;13.814;2022-08-19T08:23:58;21.33;;;19.13;;
49241;SDS011;35079;52.704;13.814;2022-08-19T08:26:24;20.30;;;18.23;;
49241;SDS011;35079;52.704;13.814;2022-08-19T08:28:54;21.45;;;19.25;;
49241;SDS011;35079;52.704;13.814;2022-08-19T08:31:19;26.88;;;20.00;;
49241;SDS011;35079;52.704;13.814;2022-08-19T08:33:46;22.02;;;19.45;;
49241;SDS011;35079;52.704;13.814;2022-08-19T08:36:12;20.08;;;17.63;;
49241;SDS011;35079;52.704;13.814;2022-08-19T08:38:38;21.38;;;18.10;;
49241;SDS011;35079;52.704;13.814;2022-08-19T08:41:10;20.98;;;18.77;;
49241;SDS011;35079;52.704;13.814;2022-08-19T08:43:44;20.00;;;18.00;;
49241;SDS011;35079;52.704;13.814;2022-08-19T08:46:17;21.63;;;19.35;;
49241;SDS011;35079;52.704;13.814;2022-08-19T08:48:54;21.90;;;19.70;;
49241;SDS011;35079;52.704;13.814;2022-08-19T08:51:32;21.60;;;19.40;;
49241;SDS011;35079;52.704;13.814;2022-08-19T08:54:20;20.23;;;18.23;;
49241;SDS011;35079;52.704;13.814;2022-08-19T08:56:55;20.30;;;17.70;;
49241;SDS011;35079;52.704;13.814;2022-08-19T08:59:24;22.30;;;17.83;;
49241;SDS011;35079;52.704;13.814;2022-08-19T09:04:21;21.10;;;17.13;;
49241;SDS011;35079;52.704;13.814;2022-08-19T09:09:41;18.83;;;17.13;;
49241;SDS011;35079;52.704;13.814;2022-08-19T09:15:09;19.30;;;17.30;;
49241;SDS011;35079;52.704;13.814;2022-08-19T09:17:37;21.95;;;16.83;;
49241;SDS011;35079;52.704;13.814;2022-08-19T09:20:05;18.65;;;16.85;;
49241;SDS011;35079;52.704;13.814;2022-08-19T09:22:43;18.20;;;16.30;;
49241;SDS011;35079;52.704;13.814;2022-08-19T09:25:10;18.60;;;16.38;;
49241;SDS011;35079;52.704;13.814;2022-08-19T09:27:38;19.08;;;16.65;;
49241;SDS011;35079;52.704;13.814;2022-08-19T09:30:06;18.50;;;16.65;;
49241;SDS011;35079;52.704;13.814;2022-08-19T09:32:33;18.30;;;16.55;;
49241;SDS011;35079;52.704;13.814;2022-08-19T09:34:59;16.85;;;15.07;;
49241;SDS011;35079;52.704;13.814;2022-08-19T09:37:26;17.33;;;15.20;;
49241;SDS011;35079;52.704;13.814;2022-08-19T09:39:52;16.42;;;14.80;;
49241;SDS011;35079;52.704;13.814;2022-08-19T09:42:18;16.42;;;14.57;;
49241;SDS011;35079;52.704;13.814;2022-08-19T09:44:46;15.73;;;14.07;;
49241;SDS011;35079;52.704;13.814;2022-08-19T09:47:12;19.67;;;16.58;;
49241;SDS011;35079;52.704;13.814;2022-08-19T09:49:39;17.13;;;15.38;;
49241;SDS011;35079;52.704;13.814;2022-08-19T09:52:06;16.98;;;14.57;;
49241;SDS011;35079;52.704;13.814;2022-08-19T09:54:35;16.63;;;14.93;;
49241;SDS011;35079;52.704;13.814;2022-08-19T09:57:01;18.50;;;16.13;;
49241;SDS011;35079;52.704;13.814;2022-08-19T09:59:27;18.90;;;15.40;;
49241;SDS011;35079;52.704;13.814;2022-08-19T10:01:53;18.50;;;16.55;;
49241;SDS011;35079;52.704;13.814;2022-08-19T10:04:19;20.30;;;16.40;;
49241;SDS011;35079;52.704;13.814;2022-08-19T10:06:46;18.48;;;16.58;;
49241;SDS011;35079;52.704;13.814;2022-08-19T10:09:14;18.55;;;16.65;;
49241;SDS011;35079;52.704;13.814;2022-08-19T10:11:41;18.42;;;16.40;;
49241;SDS011;35079;52.704;13.814;2022-08-19T10:14:07;17.50;;;15.73;;
49241;SDS011;35079;52.704;13.814;2022-08-19T10:16:34;16.95;;;15.15;;
49241;SDS011;35079;52.704;13.814;2022-08-19T10:19:02;20.27;;;17.33;;
49241;SDS011;35079;52.704;13.814;2022-08-19T10:21:29;17.27;;;15.60;;
49241;SDS011;35079;52.704;13.814;2022-08-19T10:23:58;17.50;;;15.70;;
49241;SDS011;35079;52.704;13.814;2022-08-19T10:26:30;18.15;;;16.23;;
49241;SDS011;35079;52.704;13.814;2022-08-19T10:29:01;17.48;;;15.70;;
49241;SDS011;35079;52.704;13.814;2022-08-19T10:31:30;17.20;;;15.50;;
49241;SDS011;35079;52.704;13.814;2022-08-19T10:33:57;18.40;;;15.25;;
49241;SDS011;35079;52.704;13.814;2022-08-19T10:36:28;17.17;;;15.40;;
49241;SDS011;35079;52.704;13.814;2022-08-19T10:38:56;16.67;;;15.02;;
49241;SDS011;35079;52.704;13.814;2022-08-19T10:41:25;17.67;;;14.60;;
49241;SDS011;35079;52.704;13.814;2022-08-19T10:43:53;16.05;;;14.38;;
49241;SDS011;35079;52.704;13.814;2022-08-19T10:46:20;16.77;;;14.07;;
49241;SDS011;35079;52.704;13.814;2022-08-19T10:48:47;17.63;;;14.35;;
49241;SDS011;35079;52.704;13.814;2022-08-19T10:51:13;15.32;;;13.57;;
49241;SDS011;35079;52.704;13.814;2022-08-19T10:53:57;17.15;;;15.07;;
49241;SDS011;35079;52.704;13.814;2022-08-19T10:56:24;14.88;;;13.38;;
49241;SDS011;35079;52.704;13.814;2022-08-19T10:59:08;14.50;;;13.10;;
49241;SDS011;35079;52.704;13.814;2022-08-19T11:01:37;14.02;;;12.63;;
49241;SDS011;35079;52.704;13.814;2022-08-19T11:04:03;15.52;;;13.60;;
49241;SDS011;35079;52.704;13.814;2022-08-19T11:06:33;16.13;;;13.57;;
49241;SDS011;35079;52.704;13.814;2022-08-19T11:08:58;14.95;;;13.55;;
49241;SDS011;35079;52.704;13.814;2022-08-19T11:11:25;16.05;;;13.40;;
49241;SDS011;35079;52.704;13.814;2022-08-19T11:13:51;15.68;;;13.20;;
49241;SDS011;35079;52.704;13.814;2022-08-19T11:16:22;17.15;;;13.65;;
49241;SDS011;35079;52.704;13.814;2022-08-19T11:18:52;14.45;;;12.95;;
49241;SDS011;35079;52.704;13.814;2022-08-19T11:21:21;14.05;;;12.57;;
49241;SDS011;35079;52.704;13.814;2022-08-19T11:23:49;13.75;;;12.35;;
49241;SDS011;35079;52.704;13.814;2022-08-19T11:26:18;13.38;;;12.10;;
49241;SDS011;35079;52.704;13.814;2022-08-19T11:28:44;13.65;;;12.35;;
49241;SDS011;35079;52.704;13.814;2022-08-19T11:31:15;14.05;;;12.38;;
49241;SDS011;35079;52.704;13.814;2022-08-19T11:33:43;13.07;;;11.73;;
49241;SDS011;35079;52.704;13.814;2022-08-19T11:36:08;13.57;;;12.07;;
49241;SDS011;35079;52.704;13.814;2022-08-19T11:38:35;12.55;;;11.13;;
49241;SDS011;35079;52.704;13.814;2022-08-19T11:41:03;12.90;;;11.65;;
49241;SDS011;35079;52.704;13.814;2022-08-19T11:43:32;13.18;;;11.85;;
49241;SDS011;35079;52.704;13.814;2022-08-19T11:45:58;13.73;;;12.32;;
49241;SDS011;35079;52.704;13.814;2022-08-19T11:48:24;13.57;;;12.18;;
49241;SDS011;35079;52.704;13.814;2022-08-19T11:50:51;13.38;;;12.07;;
49241;SDS011;35079;52.704;13.814;2022-08-19T11:53:20;14.30;;;12.05;;
49241;SDS011;35079;52.704;13.814;2022-08-19T11:55:47;12.93;;;11.70;;
49241;SDS011;35079;52.704;13.814;2022-08-19T11:58:13;12.80;;;11.27;;
49241;SDS011;35079;52.704;13.814;2022-08-19T12:00:41;13.77;;;12.18;;
49241;SDS011;35079;52.704;13.814;2022-08-19T12:03:07;13.07;;;11.73;;
49241;SDS011;35079;52.704;13.814;2022-08-19T12:05:33;12.85;;;11.45;;
49241;SDS011;35079;52.704;13.814;2022-08-19T12:08:02;12.88;;;11.13;;
49241;SDS011;35079;52.704;13.814;2022-08-19T12:10:27;15.88;;;12.35;;
49241;SDS011;35079;52.704;13.814;2022-08-19T12:12:53;15.30;;;12.23;;
49241;SDS011;35079;52.704;13.814;2022-08-19T12:15:19;13.48;;;11.98;;
49241;SDS011;35079;52.704;13.814;2022-08-19T12:17:44;12.43;;;11.23;;
49241;SDS011;35079;52.704;13.814;2022-08-19T12:20:10;14.32;;;12.45;;
49241;SDS011;35079;52.704;13.814;2022-08-19T12:22:38;14.88;;;12.15;;
49241;SDS011;35079;52.704;13.814;2022-08-19T12:25:06;13.77;;;12.40;;
49241;SDS011;35079;52.704;13.814;2022-08-19T12:27:32;15.32;;;12.50;;
49241;SDS011;35079;52.704;13.814;2022-08-19T12:29:58;14.00;;;12.65;;
49241;SDS011;35079;52.704;13.814;2022-08-19T12:32:26;15.80;;;13.40;;
49241;SDS011;35079;52.704;13.814;2022-08-19T12:34:52;13.10;;;11.80;;
49241;SDS011;35079;52.704;13.814;2022-08-19T12:37:19;16.25;;;13.00;;
49241;SDS011;35079;52.704;13.814;2022-08-19T12:39:45;15.05;;;12.35;;
49241;SDS011;35079;52.704;13.814;2022-08-19T12:42:12;13.32;;;11.93;;
49241;SDS011;35079;52.704;13.814;2022-08-19T12:44:39;15.02;;;12.73;;
49241;SDS011;35079;52.704;13.814;2022-08-19T12:47:06;14.35;;;12.82;;
49241;SDS011;35079;52.704;13.814;2022-08-19T12:49:33;15.65;;;12.18;;
49241;SDS011;35079;52.704;13.814;2022-08-19T12:52:02;14.40;;;12.90;;
49241;SDS011;35079;52.704;13.814;2022-08-19T12:54:28;14.93;;;13.43;;
49241;SDS011;35079;52.704;13.814;2022-08-19T12:56:55;14.50;;;12.98;;
49241;SDS011;35079;52.704;13.814;2022-08-19T12:59:24;14.43;;;13.13;;
49241;SDS011;35079;52.704;13.814;2022-08-19T13:01:50;13.63;;;12.32;;
49241;SDS011;35079;52.704;13.814;2022-08-19T13:04:16;14.32;;;12.85;;
49241;SDS011;35079;52.704;13.814;2022-08-19T13:06:42;13.80;;;12.43;;
49241;SDS011;35079;52.704;13.814;2022-08-19T13:09:08;14.70;;;13.32;;
49241;SDS011;35079;52.704;13.814;2022-08-19T13:11:34;13.57;;;12.18;;
49241;SDS011;35079;52.704;13.814;2022-08-19T13:14:01;13.13;;;11.82;;
49241;SDS011;35079;52.704;13.814;2022-08-19T13:16:28;14.13;;;12.63;;
49241;SDS011;35079;52.704;13.814;2022-08-19T13:18:55;13.95;;;12.30;;
49241;SDS011;35079;52.704;13.814;2022-08-19T13:21:23;13.43;;;12.15;;
49241;SDS011;35079;52.704;13.814;2022-08-19T13:23:50;12.73;;;11.43;;
49241;SDS011;35079;52.704;13.814;2022-08-19T13:26:17;15.27;;;12.80;;
49241;SDS011;35079;52.704;13.814;2022-08-19T13:28:43;13.10;;;11.80;;
49241;SDS011;35079;52.704;13.814;2022-08-19T13:31:29;14.40;;;11.60;;
49241;SDS011;35079;52.704;13.814;2022-08-19T13:34:15;13.05;;;11.75;;
49241;SDS011;35079;52.704;13.814;2022-08-19T13:36:42;12.13;;;10.98;;
49241;SDS011;35079;52.704;13.814;2022-08-19T13:39:08;12.25;;;10.93;;
49241;SDS011;35079;52.704;13.814;2022-08-19T13:41:34;12.38;;;11.13;;
49241;SDS011;35079;52.704;13.814;2022-08-19T13:44:01;13.63;;;11.43;;
49241;SDS011;35079;52.704;13.814;2022-08-19T13:46:27;12.80;;;11.50;;
49241;SDS011;35079;52.704;13.814;2022-08-19T13:48:54;13.15;;;10.93;;
49241;SDS011;35079;52.704;13.814;2022-08-19T13:51:20;12.73;;;11.52;;
49241;SDS011;35079;52.704;13.814;2022-08-19T13:53:46;12.40;;;10.93;;
49241;SDS011;35079;52.704;13.814;2022-08-19T13:56:13;13.18;;;10.85;;
49241;SDS011;35079;52.704;13.814;2022-08-19T13:58:40;13.48;;;11.07;;
49241;SDS011;35079;52.704;13.814;2022-08-19T14:01:06;11.98;;;10.88;;
49241;SDS011;35079;52.704;13.814;2022-08-19T14:03:33;11.98;;;10.77;;
49241;SDS011;35079;52.704;13.814;2022-08-19T14:05:59;11.82;;;10.68;;
49241;SDS011;35079;52.704;13.814;2022-08-19T14:08:26;12.48;;;11.30;;
49241;SDS011;35079;52.704;13.814;2022-08-19T14:10:53;12.40;;;11.23;;
49241;SDS011;35079;52.704;13.814;2022-08-19T14:13:20;12.20;;;11.00;;
49241;SDS011;35079;52.704;13.814;2022-08-19T14:15:47;13.35;;;12.00;;
49241;SDS011;35079;52.704;13.814;2022-08-19T14:18:13;12.10;;;11.00;;
49241;SDS011;35079;52.704;13.814;2022-08-19T14:20:40;12.60;;;11.40;;
49241;SDS011;35079;52.704;13.814;2022-08-19T14:23:06;12.02;;;10.85;;
49241;SDS011;35079;52.704;13.814;2022-08-19T14:25:32;13.43;;;11.52;;
49241;SDS011;35079;52.704;13.814;2022-08-19T14:27:58;12.82;;;11.38;;